Time;durP1;ratioP1;P1;durP2;ratioP2;P2;SDS_P1;SDS_P2;PMS_P1;PMS_P2;Temp;Humidity;BMP_temperature;BMP_pressure;BME280_temperature;BME280_humidity;BME280_pressure;Samples;Min_cycle;Max_cycle;Signal;HPM_P1;HPM_P2
2023/10/23 00:01:40;;;;;;;10.48;6.03;;;8.50;99.90;;;;;;5016842;28;20034;-75
2023/10/23 00:04:06;;;;;;;7.72;6.35;;;8.50;99.90;;;;;;5024594;28;20060;-75
2023/10/23 00:06:33;;;;;;;8.07;6.10;;;8.50;99.90;;;;;;5015268;28;20041;-75
2023/10/23 00:09:00;;;;;;;10.43;6.13;;;8.50;99.90;;;;;;5022139;28;20045;-75
2023/10/23 00:11:28;;;;;;;9.25;6.15;;;8.50;99.90;;;;;;5005865;28;20049;-74
2023/10/23 00:13:54;;;;;;;10.23;5.97;;;8.50;99.90;;;;;;5024849;28;20088;-75
2023/10/23 00:16:21;;;;;;;9.13;5.72;;;8.50;99.90;;;;;;5014616;28;20068;-75
2023/10/23 00:18:48;;;;;;;8.52;5.55;;;8.50;99.90;;;;;;5016874;28;20116;-74
2023/10/23 00:21:15;;;;;;;8.18;5.78;;;8.50;99.90;;;;;;5023190;28;20409;-74
2023/10/23 00:23:41;;;;;;;9.13;6.13;;;8.40;99.90;;;;;;5011001;28;20040;-74
2023/10/23 00:26:07;;;;;;;8.40;5.78;;;8.40;99.90;;;;;;5023616;28;20037;-75
2023/10/23 00:28:33;;;;;;;9.30;5.85;;;8.40;99.90;;;;;;5023653;28;20041;-74
2023/10/23 00:30:59;;;;;;;9.93;6.60;;;8.40;99.90;;;;;;5029143;28;20128;-75
2023/10/23 00:33:26;;;;;;;8.63;6.60;;;8.40;99.90;;;;;;5015394;28;20171;-74
2023/10/23 00:35:55;;;;;;;11.18;6.68;;;8.30;99.90;;;;;;5027667;28;20401;-74
2023/10/23 00:38:20;;;;;;;8.15;6.18;;;8.30;99.90;;;;;;5014595;28;20486;-74
2023/10/23 00:40:48;;;;;;;9.25;5.97;;;8.30;99.90;;;;;;5033559;28;20495;-75
2023/10/23 00:43:19;;;;;;;8.85;6.40;;;8.30;99.90;;;;;;5018126;28;20038;-74
2023/10/23 00:45:58;;;;;;;10.93;6.18;;;8.30;99.90;;;;;;5015615;28;20520;-74
2023/10/23 00:48:24;;;;;;;10.15;6.50;;;8.30;99.90;;;;;;5023540;28;20092;-75
2023/10/23 00:50:55;;;;;;;8.98;6.32;;;8.30;99.90;;;;;;5025243;28;20489;-74
2023/10/23 00:53:22;;;;;;;9.75;6.43;;;8.30;99.90;;;;;;5029271;28;20489;-74
2023/10/23 00:55:50;;;;;;;10.48;6.35;;;8.20;99.90;;;;;;5006199;28;20053;-74
2023/10/23 00:58:16;;;;;;;10.02;6.03;;;8.20;99.90;;;;;;5023150;28;20046;-75
2023/10/23 01:00:44;;;;;;;8.48;6.10;;;8.20;99.90;;;;;;5028477;28;20037;-74
2023/10/23 01:03:10;;;;;;;8.25;5.90;;;8.20;99.90;;;;;;5000406;28;20338;-74
2023/10/23 01:05:37;;;;;;;9.45;6.07;;;8.10;99.90;;;;;;5018868;28;20042;-74
2023/10/23 01:08:03;;;;;;;8.55;5.80;;;8.10;99.90;;;;;;5022144;28;20033;-74
2023/10/23 01:10:29;;;;;;;8.38;5.50;;;8.10;99.90;;;;;;5021341;28;20046;-74
2023/10/23 01:12:56;;;;;;;9.40;6.03;;;8.10;99.90;;;;;;5021809;28;20040;-74
2023/10/23 01:15:22;;;;;;;9.23;5.57;;;8.00;99.90;;;;;;5019140;28;20049;-74
2023/10/23 01:17:48;;;;;;;10.18;6.05;;;8.00;99.90;;;;;;5023497;28;20037;-74
2023/10/23 01:20:15;;;;;;;11.18;6.60;;;8.00;99.90;;;;;;5021763;28;20044;-75
2023/10/23 01:22:40;;;;;;;8.23;6.20;;;8.00;99.90;;;;;;5021399;28;20061;-74
2023/10/23 01:25:16;;;;;;;8.18;5.68;;;8.60;99.90;;;;;;5023974;28;20532;-74
2023/10/23 01:27:42;;;;;;;9.20;6.20;;;7.90;99.90;;;;;;5015260;28;20045;-74
2023/10/23 01:30:09;;;;;;;10.23;6.30;;;7.90;99.90;;;;;;5028749;28;20128;-74
2023/10/23 01:32:36;;;;;;;10.40;6.10;;;7.90;99.90;;;;;;5017384;28;20520;-75
2023/10/23 01:35:02;;;;;;;9.73;5.70;;;7.90;99.90;;;;;;5012588;28;20079;-74
2023/10/23 01:37:27;;;;;;;9.25;5.82;;;7.80;99.90;;;;;;5022635;28;20081;-74
2023/10/23 01:39:53;;;;;;;10.48;6.20;;;7.80;99.90;;;;;;5030155;28;20069;-74
2023/10/23 01:42:18;;;;;;;7.65;5.55;;;7.80;99.90;;;;;;5001103;28;20517;-74
2023/10/23 01:44:44;;;;;;;7.85;4.90;;;7.70;99.90;;;;;;5031428;28;20033;-75
2023/10/23 01:47:10;;;;;;;8.68;4.15;;;7.70;99.90;;;;;;5021966;28;20041;-73
2023/10/23 01:49:35;;;;;;;4.68;3.40;;;7.70;99.90;;;;;;5022784;28;20124;-74
2023/10/23 01:52:01;;;;;;;5.80;3.10;;;7.60;99.90;;;;;;5027249;28;20041;-73
2023/10/23 01:54:26;;;;;;;4.63;3.05;;;7.60;99.90;;;;;;5022394;28;20073;-74
2023/10/23 01:56:52;;;;;;;5.93;2.97;;;7.50;99.90;;;;;;5030985;28;20469;-76
2023/10/23 01:59:18;;;;;;;4.65;3.03;;;7.60;99.90;;;;;;5017488;28;20038;-75
2023/10/23 02:01:43;;;;;;;6.47;3.92;;;7.50;99.90;;;;;;5006636;28;20033;-75
2023/10/23 02:04:09;;;;;;;7.05;3.95;;;7.50;99.90;;;;;;5024715;28;20052;-75
2023/10/23 02:06:34;;;;;;;5.35;3.97;;;7.50;99.90;;;;;;5017922;28;20041;-74
2023/10/23 02:09:00;;;;;;;6.00;4.28;;;7.50;99.90;;;;;;5030458;28;20037;-75
2023/10/23 02:11:27;;;;;;;6.65;4.70;;;7.40;99.90;;;;;;5019846;28;20038;-74
2023/10/23 02:13:53;;;;;;;7.25;4.60;;;7.40;99.90;;;;;;5010688;28;20040;-73
2023/10/23 02:16:18;;;;;;;6.97;4.40;;;7.40;99.90;;;;;;5020531;28;20037;-74
2023/10/23 02:18:44;;;;;;;8.10;4.80;;;7.40;99.90;;;;;;5018629;28;20037;-74
2023/10/23 02:21:10;;;;;;;7.40;5.10;;;7.40;99.90;;;;;;5024832;28;20088;-74
2023/10/23 02:23:35;;;;;;;10.13;5.20;;;7.40;99.90;;;;;;5023259;28;20116;-74
2023/10/23 02:26:02;;;;;;;8.13;4.80;;;7.30;99.90;;;;;;5019292;28;20092;-74
2023/10/23 02:28:28;;;;;;;7.05;4.68;;;7.30;99.90;;;;;;5015823;28;20038;-74
2023/10/23 02:30:55;;;;;;;9.07;4.10;;;7.30;99.90;;;;;;5022820;28;20095;-74
2023/10/23 02:33:21;;;;;;;5.65;4.38;;;7.30;99.90;;;;;;5004433;28;20038;-74
2023/10/23 02:35:47;;;;;;;9.07;5.10;;;7.30;99.90;;;;;;5016904;28;20045;-73
2023/10/23 02:38:13;;;;;;;8.50;6.00;;;7.30;99.90;;;;;;5027402;28;20509;-74
2023/10/23 02:40:39;;;;;;;8.27;5.43;;;7.30;99.90;;;;;;5017694;28;20455;-74
2023/10/23 02:43:05;;;;;;;8.02;4.90;;;7.30;99.90;;;;;;5028977;28;20103;-73
2023/10/23 02:45:33;;;;;;;12.27;5.38;;;7.30;99.90;;;;;;5023917;28;20122;-74
2023/10/23 02:48:00;;;;;;;8.82;5.38;;;7.40;99.90;;;;;;5024453;28;20041;-74
2023/10/23 02:50:26;;;;;;;9.65;5.50;;;7.30;99.90;;;;;;5016604;28;20049;-74
2023/10/23 02:52:52;;;;;;;8.80;6.00;;;7.30;99.90;;;;;;5017657;28;20325;-73
2023/10/23 02:55:17;;;;;;;8.75;5.80;;;7.40;99.90;;;;;;5020811;28;20125;-73
2023/10/23 02:57:43;;;;;;;9.10;5.97;;;7.40;99.90;;;;;;5015747;28;20117;-73
2023/10/23 03:00:09;;;;;;;8.27;5.20;;;7.30;99.90;;;;;;4988117;28;20044;-75
2023/10/23 03:02:35;;;;;;;8.18;5.25;;;7.30;99.90;;;;;;5022472;28;20120;-74
2023/10/23 03:05:01;;;;;;;11.82;6.07;;;7.30;99.90;;;;;;4994022;28;20151;-75
2023/10/23 03:07:27;;;;;;;9.10;5.75;;;7.30;99.90;;;;;;5024345;28;20048;-75
2023/10/23 03:09:52;;;;;;;9.05;5.78;;;7.30;99.90;;;;;;5014251;28;20609;-74
2023/10/23 03:12:19;;;;;;;8.15;5.90;;;7.30;99.90;;;;;;5021444;28;20109;-74
2023/10/23 03:14:44;;;;;;;13.45;6.53;;;7.30;99.90;;;;;;5008322;28;20515;-73
2023/10/23 03:17:10;;;;;;;8.73;6.25;;;7.30;99.90;;;;;;5016171;28;20045;-73
2023/10/23 03:19:35;;;;;;;10.35;6.57;;;7.30;99.90;;;;;;5025317;28;20397;-75
2023/10/23 03:22:01;;;;;;;9.23;6.47;;;7.30;99.90;;;;;;5023401;28;20045;-74
2023/10/23 03:24:27;;;;;;;9.73;6.55;;;7.30;99.90;;;;;;5026282;28;20029;-73
2023/10/23 03:26:53;;;;;;;11.50;6.68;;;7.30;99.90;;;;;;5021869;28;20049;-73
2023/10/23 03:29:18;;;;;;;9.35;5.97;;;7.20;99.90;;;;;;5006704;28;20433;-74
2023/10/23 03:31:45;;;;;;;11.35;6.40;;;7.30;99.90;;;;;;5023816;28;20175;-74
2023/10/23 03:34:12;;;;;;;11.32;6.85;;;7.20;99.90;;;;;;5010181;28;20034;-74
2023/10/23 03:36:40;;;;;;;8.18;6.20;;;7.30;99.90;;;;;;5025203;28;20050;-73
2023/10/23 03:39:06;;;;;;;10.40;6.65;;;7.30;99.90;;;;;;5011895;28;20037;-75
2023/10/23 03:41:33;;;;;;;11.57;6.38;;;7.30;99.90;;;;;;5021587;28;20038;-73
2023/10/23 03:44:01;;;;;;;9.68;6.85;;;7.30;99.90;;;;;;5023125;28;20405;-74
2023/10/23 03:46:28;;;;;;;8.60;5.88;;;7.30;99.90;;;;;;5002459;28;20402;-73
2023/10/23 03:48:54;;;;;;;10.48;6.65;;;7.30;99.90;;;;;;5024493;28;20033;-74
2023/10/23 03:51:20;;;;;;;14.68;6.90;;;7.30;99.90;;;;;;5022517;28;20228;-73
2023/10/23 03:53:46;;;;;;;9.82;6.95;;;7.40;99.90;;;;;;5017155;28;20040;-73
2023/10/23 03:56:11;;;;;;;11.68;6.75;;;7.40;99.90;;;;;;5028377;28;20088;-73
2023/10/23 03:58:37;;;;;;;10.55;6.85;;;7.40;99.90;;;;;;5023368;28;20136;-73
2023/10/23 04:01:02;;;;;;;9.60;6.63;;;7.40;99.90;;;;;;5018539;28;20060;-74
2023/10/23 04:03:28;;;;;;;10.15;6.53;;;7.50;99.90;;;;;;5022670;28;20030;-74
2023/10/23 04:05:54;;;;;;;8.98;6.45;;;7.50;99.90;;;;;;5021476;28;20046;-74
2023/10/23 04:08:20;;;;;;;14.02;6.18;;;7.50;99.90;;;;;;5026446;28;20038;-73
2023/10/23 04:10:49;;;;;;;11.13;6.22;;;7.40;99.90;;;;;;5020907;28;20461;-73
2023/10/23 04:13:15;;;;;;;9.52;6.63;;;7.40;99.90;;;;;;5012823;28;20046;-74
2023/10/23 04:15:50;;;;;;;9.30;6.55;;;7.40;99.90;;;;;;5015125;28;20033;-74
2023/10/23 04:18:16;;;;;;;10.85;6.13;;;7.40;99.90;;;;;;5005576;28;20102;-73
2023/10/23 04:20:42;;;;;;;10.82;6.03;;;7.40;99.90;;;;;;4995254;28;20044;-73
2023/10/23 04:23:08;;;;;;;9.30;6.00;;;7.40;99.90;;;;;;5027970;28;20100;-73
2023/10/23 04:25:33;;;;;;;8.60;5.72;;;7.40;99.90;;;;;;5025515;28;20079;-73
2023/10/23 04:27:59;;;;;;;10.48;5.85;;;7.40;99.90;;;;;;5024719;28;20150;-74
2023/10/23 04:30:24;;;;;;;7.22;5.47;;;7.30;99.90;;;;;;5009453;28;20033;-74
2023/10/23 04:32:50;;;;;;;9.05;5.38;;;7.30;99.90;;;;;;5024934;28;20404;-73
2023/10/23 04:35:15;;;;;;;8.88;5.95;;;7.30;99.90;;;;;;5028669;28;20119;-73
2023/10/23 04:37:41;;;;;;;7.72;5.70;;;7.20;99.90;;;;;;5011143;28;20064;-73
2023/10/23 04:40:07;;;;;;;8.60;5.82;;;7.20;99.90;;;;;;5026169;28;20103;-74
2023/10/23 04:42:33;;;;;;;11.23;5.60;;;7.20;99.90;;;;;;5012478;23;20046;-76
2023/10/23 04:44:58;;;;;;;7.53;5.70;;;7.20;99.90;;;;;;5012403;28;20045;-75
2023/10/23 04:47:24;;;;;;;12.23;5.93;;;7.20;99.90;;;;;;5012352;28;20585;-75
2023/10/23 04:49:50;;;;;;;8.15;5.85;;;7.10;99.90;;;;;;5012136;28;20045;-79
2023/10/23 04:52:16;;;;;;;8.02;5.65;;;7.10;99.90;;;;;;5009364;28;20068;-75
2023/10/23 04:54:42;;;;;;;8.52;5.60;;;7.10;99.90;;;;;;5005627;28;20037;-78
2023/10/23 04:57:08;;;;;;;9.50;5.45;;;7.10;99.90;;;;;;5006668;28;20039;-76
2023/10/23 04:59:35;;;;;;;10.38;6.00;;;7.10;99.90;;;;;;5011430;28;20341;-75
2023/10/23 05:02:00;;;;;;;13.60;6.57;;;7.10;99.90;;;;;;5008051;28;20042;-78
2023/10/23 05:04:31;;;;;;;8.32;5.60;;;7.10;99.90;;;;;;5008238;28;20034;-80
2023/10/23 05:06:57;;;;;;;10.05;5.90;;;7.10;99.90;;;;;;5005385;28;20057;-77
2023/10/23 05:09:23;;;;;;;8.85;6.18;;;7.10;99.90;;;;;;5007506;28;20137;-80
2023/10/23 05:11:48;;;;;;;13.23;6.38;;;7.10;99.90;;;;;;5021692;28;20057;-80
2023/10/23 05:14:14;;;;;;;12.35;6.57;;;7.10;99.90;;;;;;5028550;28;20505;-77
2023/10/23 05:16:40;;;;;;;10.98;6.78;;;7.10;99.90;;;;;;5014063;28;20042;-80
2023/10/23 05:19:07;;;;;;;8.55;6.18;;;7.20;99.90;;;;;;5015338;28;20129;-77
2023/10/23 05:21:32;;;;;;;9.35;6.07;;;7.20;99.90;;;;;;5016484;28;20421;-79
2023/10/23 05:23:58;;;;;;;8.32;6.10;;;7.20;99.90;;;;;;5011297;28;20132;-77
2023/10/23 05:26:23;;;;;;;9.88;6.53;;;7.20;99.90;;;;;;5020529;28;20065;-76
2023/10/23 05:28:53;;;;;;;8.07;5.93;;;7.20;99.90;;;;;;5020505;28;20458;-77
2023/10/23 05:31:19;;;;;;;9.30;6.28;;;7.10;99.90;;;;;;5015123;28;20039;-77
2023/10/23 05:33:45;;;;;;;8.82;6.00;;;7.10;99.90;;;;;;5014337;28;20463;-76
2023/10/23 05:36:10;;;;;;;8.45;6.13;;;7.10;99.90;;;;;;5007342;28;20046;-77
2023/10/23 05:38:37;;;;;;;9.25;6.15;;;7.10;99.90;;;;;;5026691;28;20049;-76
2023/10/23 05:41:03;;;;;;;9.50;6.18;;;7.10;99.90;;;;;;5016172;28;20037;-76
2023/10/23 05:43:29;;;;;;;10.73;6.00;;;7.10;99.90;;;;;;5012932;28;20042;-78
2023/10/23 05:45:55;;;;;;;9.93;5.78;;;7.10;99.90;;;;;;5007783;28;20035;-76
2023/10/23 05:48:21;;;;;;;9.38;6.25;;;7.10;99.90;;;;;;4997315;28;20045;-76
2023/10/23 05:50:57;;;;;;;11.55;6.65;;;7.10;99.90;;;;;;5009457;28;20649;-76
2023/10/23 05:53:23;;;;;;;10.93;7.13;;;7.10;99.90;;;;;;5010949;28;20050;-76
2023/10/23 05:55:49;;;;;;;10.50;6.70;;;7.10;99.90;;;;;;5016144;28;20464;-76
2023/10/23 05:58:14;;;;;;;9.20;6.40;;;7.10;99.90;;;;;;5019156;28;20575;-75
2023/10/23 06:00:40;;;;;;;10.88;6.97;;;7.10;99.90;;;;;;5004362;28;20056;-76
2023/10/23 06:03:05;;;;;;;13.15;6.80;;;7.10;99.90;;;;;;5013407;28;20066;-77
2023/10/23 06:05:31;;;;;;;9.80;6.63;;;7.10;99.90;;;;;;5008940;28;20044;-76
2023/10/23 06:07:56;;;;;;;12.88;6.60;;;7.00;99.90;;;;;;5010642;28;20041;-76
2023/10/23 06:10:22;;;;;;;11.73;7.20;;;7.00;99.90;;;;;;5008151;28;20037;-78
2023/10/23 06:12:48;;;;;;;9.15;6.60;;;7.00;99.90;;;;;;5008471;28;20424;-76
2023/10/23 06:15:13;;;;;;;12.10;6.38;;;7.00;99.90;;;;;;5008113;28;20045;-76
2023/10/23 06:17:39;;;;;;;9.60;6.60;;;7.00;99.90;;;;;;5008829;28;20067;-76
2023/10/23 06:20:05;;;;;;;10.63;6.43;;;6.90;99.90;;;;;;5009848;28;20497;-78
2023/10/23 06:22:30;;;;;;;10.75;6.50;;;6.90;99.90;;;;;;5014274;28;20041;-77
2023/10/23 06:24:56;;;;;;;13.13;6.90;;;6.90;99.90;;;;;;5010538;28;20100;-79
2023/10/23 06:27:23;;;;;;;10.10;6.75;;;6.90;99.90;;;;;;5012804;28;20056;-76
2023/10/23 06:29:50;;;;;;;8.90;6.55;;;6.80;99.90;;;;;;5010588;28;20046;-79
2023/10/23 06:32:18;;;;;;;10.68;6.80;;;6.80;99.90;;;;;;5008836;28;20045;-76
2023/10/23 06:34:43;;;;;;;13.35;8.18;;;6.90;99.90;;;;;;5001890;28;20038;-76
2023/10/23 06:37:10;;;;;;;13.98;7.43;;;6.80;99.90;;;;;;5009071;28;20041;-78
2023/10/23 06:39:35;;;;;;;15.95;7.45;;;6.90;99.90;;;;;;5007704;28;20042;-76
2023/10/23 06:42:01;;;;;;;14.90;7.40;;;6.90;99.90;;;;;;4993188;28;20034;-76
2023/10/23 06:44:28;;;;;;;11.18;7.25;;;7.00;99.90;;;;;;4991907;28;20548;-76
2023/10/23 06:46:53;;;;;;;9.50;7.20;;;7.00;99.90;;;;;;5013612;28;20073;-76
2023/10/23 06:49:19;;;;;;;13.05;6.90;;;7.00;99.90;;;;;;5004708;28;20042;-77
2023/10/23 06:51:45;;;;;;;9.07;6.40;;;7.00;99.90;;;;;;5002968;28;20052;-76
2023/10/23 06:54:11;;;;;;;10.23;6.35;;;7.00;99.90;;;;;;4998268;28;20410;-77
2023/10/23 06:56:36;;;;;;;9.98;5.93;;;7.00;99.90;;;;;;5009811;28;20037;-76
2023/10/23 06:59:02;;;;;;;11.68;6.63;;;7.00;99.90;;;;;;5007304;28;20045;-76
2023/10/23 07:01:28;;;;;;;11.10;6.18;;;7.00;99.90;;;;;;5006324;28;20044;-76
2023/10/23 07:03:53;;;;;;;8.00;5.72;;;7.00;99.90;;;;;;5003135;28;20035;-78
2023/10/23 07:06:19;;;;;;;9.75;6.10;;;7.00;99.90;;;;;;5006755;28;20030;-76
2023/10/23 07:08:44;;;;;;;11.05;5.93;;;6.90;99.90;;;;;;5013533;28;20045;-76
2023/10/23 07:11:14;;;;;;;8.55;6.20;;;6.90;99.90;;;;;;5010574;28;20050;-77
2023/10/23 07:13:40;;;;;;;9.20;5.85;;;6.90;99.90;;;;;;5001405;28;20124;-76
2023/10/23 07:16:05;;;;;;;10.55;5.88;;;6.90;99.90;;;;;;5016004;28;20136;-79
2023/10/23 07:18:31;;;;;;;9.70;5.53;;;6.90;99.90;;;;;;5011298;28;20050;-76
2023/10/23 07:20:59;;;;;;;7.47;5.28;;;6.90;99.90;;;;;;5012196;28;20042;-76
2023/10/23 07:23:26;;;;;;;7.40;5.55;;;7.00;99.90;;;;;;5023273;28;20038;-76
2023/10/23 07:26:07;;;;;;;10.25;6.32;;;7.00;99.90;;;;;;5008595;28;20057;-76
2023/10/23 07:28:34;;;;;;;9.37;6.40;;;7.00;99.90;;;;;;5009585;28;20042;-78
2023/10/23 07:31:03;;;;;;;8.60;6.10;;;7.00;99.90;;;;;;5009933;28;20072;-79
2023/10/23 07:33:29;;;;;;;11.13;6.15;;;7.10;99.90;;;;;;5006040;28;20046;-76
2023/10/23 07:36:02;;;;;;;9.48;6.53;;;7.10;99.90;;;;;;5013711;28;20064;-76
2023/10/23 07:38:28;;;;;;;9.50;6.30;;;7.10;99.90;;;;;;5013649;28;20081;-76
2023/10/23 07:40:53;;;;;;;9.18;6.10;;;7.10;99.90;;;;;;5013020;28;20081;-76
2023/10/23 07:43:19;;;;;;;13.77;6.70;;;7.20;99.90;;;;;;5012666;28;20042;-78
2023/10/23 07:45:44;;;;;;;10.95;6.65;;;7.20;99.90;;;;;;5006317;28;20038;-78
2023/10/23 07:48:10;;;;;;;9.75;6.40;;;7.30;99.90;;;;;;5011632;28;20053;-76
2023/10/23 07:50:36;;;;;;;13.15;7.25;;;7.40;99.90;;;;;;5013073;28;20042;-79
2023/10/23 07:53:04;;;;;;;11.02;7.60;;;7.50;99.90;;;;;;5012290;28;20056;-76
2023/10/23 07:55:30;;;;;;;11.70;8.27;;;7.60;99.90;;;;;;5012818;28;20079;-76
2023/10/23 07:57:55;;;;;;;12.77;8.25;;;7.70;99.90;;;;;;5007113;28;20418;-76
2023/10/23 08:00:22;;;;;;;11.15;8.57;;;7.80;99.90;;;;;;5005211;28;20045;-77
2023/10/23 08:02:47;;;;;;;11.45;8.43;;;7.80;99.90;;;;;;5000926;28;20482;-81
2023/10/23 08:05:13;;;;;;;10.55;8.02;;;7.90;99.90;;;;;;5000041;28;20165;-77
2023/10/23 08:07:38;;;;;;;11.70;8.55;;;8.00;99.90;;;;;;5010080;28;20506;-79
2023/10/23 08:10:04;;;;;;;11.77;8.48;;;8.10;99.90;;;;;;5003942;28;20448;-77
2023/10/23 08:12:30;;;;;;;12.70;8.98;;;8.20;99.90;;;;;;4995866;28;20393;-77
2023/10/23 08:14:56;;;;;;;12.43;8.88;;;8.20;99.90;;;;;;5001222;28;20042;-82
2023/10/23 08:17:21;;;;;;;11.38;8.13;;;8.30;99.90;;;;;;5000838;28;20446;-79
2023/10/23 08:19:47;;;;;;;10.82;7.95;;;8.40;99.90;;;;;;5013420;28;20409;-76
2023/10/23 08:22:12;;;;;;;12.75;8.50;;;8.40;99.90;;;;;;5015600;28;20050;-76
2023/10/23 08:24:38;;;;;;;12.90;8.38;;;8.60;99.90;;;;;;5013536;28;20121;-76
2023/10/23 08:27:03;;;;;;;11.45;8.25;;;8.60;99.90;;;;;;5017675;28;20052;-79
2023/10/23 08:29:29;;;;;;;10.63;8.15;;;8.70;99.90;;;;;;5006359;28;20034;-76
2023/10/23 08:31:55;;;;;;;10.02;7.90;;;8.70;99.90;;;;;;5006413;28;20048;-79
2023/10/23 08:34:23;;;;;;;11.60;8.77;;;8.80;99.90;;;;;;5019554;28;20038;-77
2023/10/23 08:36:49;;;;;;;12.18;8.07;;;8.90;99.90;;;;;;5003003;28;20046;-76
2023/10/23 08:39:14;;;;;;;14.43;8.90;;;8.90;99.90;;;;;;5034018;28;20041;-76
2023/10/23 08:41:40;;;;;;;13.07;8.52;;;9.00;99.90;;;;;;5003440;28;20045;-81
2023/10/23 08:44:06;;;;;;;10.75;8.32;;;9.00;99.90;;;;;;5014630;28;20045;-76
2023/10/23 08:46:33;;;;;;;11.40;8.60;;;9.00;99.90;;;;;;5012771;28;20038;-79
2023/10/23 08:49:00;;;;;;;17.42;9.40;;;9.00;99.90;;;;;;5016129;28;20045;-80
2023/10/23 08:51:26;;;;;;;17.45;9.70;;;9.10;99.90;;;;;;5011895;28;20038;-77
2023/10/23 08:53:59;;;;;;;13.20;9.55;;;9.10;99.90;;;;;;4992595;28;20052;-77
2023/10/23 08:56:25;;;;;;;11.43;8.95;;;9.10;99.90;;;;;;5014737;28;20065;-77
2023/10/23 08:59:00;;;;;;;13.10;8.88;;;9.10;99.90;;;;;;5010041;28;20397;-75
2023/10/23 09:01:27;;;;;;;15.27;10.10;;;9.10;99.90;;;;;;4999587;28;20064;-76
2023/10/23 09:03:53;;;;;;;12.50;10.02;;;9.10;99.90;;;;;;5010210;28;20553;-79
2023/10/23 09:06:19;;;;;;;12.25;9.25;;;9.10;99.90;;;;;;5003599;28;20042;-76
2023/10/23 09:08:45;;;;;;;13.02;10.20;;;9.10;99.90;;;;;;5013738;28;20177;-76
2023/10/23 09:11:11;;;;;;;13.48;10.38;;;9.20;99.90;;;;;;5018872;28;20383;-77
2023/10/23 09:13:38;;;;;;;15.20;9.80;;;9.20;99.90;;;;;;5009388;28;20037;-75
2023/10/23 09:16:08;;;;;;;13.32;9.77;;;9.20;99.90;;;;;;4983490;28;20034;-78
2023/10/23 09:18:44;;;;;;;14.75;10.07;;;9.30;99.90;;;;;;5008770;28;20045;-76
2023/10/23 09:21:11;;;;;;;11.95;9.07;;;9.30;99.90;;;;;;5008550;28;20402;-77
2023/10/23 09:24:00;;;;;;;14.88;9.57;;;9.30;99.90;;;;;;5017450;28;20669;-75
2023/10/23 09:26:26;;;;;;;13.90;9.63;;;9.40;99.90;;;;;;5006963;28;20737;-76
2023/10/23 09:28:52;;;;;;;15.95;10.25;;;9.50;99.90;;;;;;5008049;28;20045;-76
2023/10/23 09:31:19;;;;;;;14.60;10.45;;;9.50;99.90;;;;;;5008212;28;20046;-77
2023/10/23 09:33:46;;;;;;;11.90;9.10;;;9.60;99.90;;;;;;5015325;28;20168;-76
2023/10/23 09:36:13;;;;;;;21.73;11.00;;;9.60;99.90;;;;;;5004118;28;20052;-76
2023/10/23 09:38:41;;;;;;;22.27;11.60;;;9.70;99.90;;;;;;5006234;28;20049;-77
2023/10/23 09:41:11;;;;;;;15.07;9.85;;;9.70;99.90;;;;;;5005225;28;20092;-79
2023/10/23 09:43:46;;;;;;;14.63;10.70;;;9.70;99.90;;;;;;5008315;28;20225;-77
2023/10/23 09:46:12;;;;;;;24.60;12.60;;;9.80;99.90;;;;;;5010962;28;20038;-77
2023/10/23 09:48:43;;;;;;;21.30;13.48;;;9.90;99.90;;;;;;5004068;28;20145;-79
2023/10/23 09:51:15;;;;;;;17.95;12.95;;;9.90;99.90;;;;;;5007417;28;20049;-77
2023/10/23 09:54:00;;;;;;;16.42;11.73;;;10.00;99.90;;;;;;5006709;28;20047;-77
2023/10/23 09:56:31;;;;;;;19.67;12.35;;;10.10;99.90;;;;;;5008057;28;20048;-76
2023/10/23 09:59:04;;;;;;;28.17;16.40;;;10.10;99.90;;;;;;5002748;28;20437;-77
2023/10/23 10:01:40;;;;;;;23.42;15.02;;;10.20;99.90;;;;;;4993146;28;20038;-76
2023/10/23 10:04:12;;;;;;;25.10;15.52;;;10.20;99.90;;;;;;5025016;28;20045;-77
2023/10/23 10:06:42;;;;;;;24.80;16.55;;;10.30;99.90;;;;;;5007827;28;20042;-76
2023/10/23 10:09:12;;;;;;;23.38;16.17;;;10.30;99.90;;;;;;5001874;28;20046;-75
2023/10/23 10:11:43;;;;;;;27.10;17.92;;;10.40;99.90;;;;;;5006038;28;20084;-78
2023/10/23 10:14:10;;;;;;;27.23;17.92;;;10.50;99.90;;;;;;5003498;28;20038;-77
2023/10/23 10:16:37;;;;;;;30.33;19.48;;;10.50;99.90;;;;;;5003526;28;20482;-75
2023/10/23 10:19:04;;;;;;;29.50;20.05;;;10.50;99.90;;;;;;4985437;28;20050;-75
2023/10/23 10:21:40;;;;;;;27.77;18.98;;;10.60;99.90;;;;;;4992508;28;20057;-76
2023/10/23 10:24:06;;;;;;;29.55;19.15;;;10.70;99.90;;;;;;5008742;28;20072;-78
2023/10/23 10:26:33;;;;;;;30.20;20.05;;;10.70;99.90;;;;;;5016103;28;20108;-76
2023/10/23 10:28:59;;;;;;;28.42;17.85;;;10.70;99.90;;;;;;5010735;28;20041;-78
2023/10/23 10:31:25;;;;;;;27.83;18.08;;;10.80;99.90;;;;;;5022545;28;20052;-76
